»·PEaware :: WAT446 KLAS-KABQ

WAT446 :: KLAS-KABQ

FLIGHT INFORMATION

Flight Status: Arrived
Operator:
Walker Air Transport
More flights by this operator :: More flights under this callsign
Pilot: Robert C. (30425)
Aircraft: Unknown
(EPIC)
More flights by this aircraft type
Origin: KLAS McCarran Intl
United States
Destination: KABQ Albuquerque Intl Sunport
United States
More flights between these airports :: More routes between these airports
Route: BLD080 V562 DRK J96 GUP CURLY3
File this flight plan on PilotEdge
Remarks:
Altitude:
(Current/Filed)
19,000ft
Speed:
(Current/Filed)
325kts
Departed: 19-Feb-21 11:51 AM
Arrived: 19-Feb-21 01:26 PM
Distance/Time
Traveled:
421nm/1:34
Distance/Time
To Go:
Arrived

Flight Plot

Page will automatically refresh every two minutes.

Flight plan parsing failed; only flown route is shown


Map Options




Map Legend


Flown Route
Filed Route
Departure Airport
Arrival Airport
Navaid (VOR, NDB)
Fix

Horizontal Profiles

Position Reports

Time Latitude Longitude Heading Altitude Ground
Speed
19-Feb-21 11:11 36.080455 -115.170836 125 2169ft 0kts
19-Feb-21 11:12 36.080455 -115.170836 125 2169ft 0kts
19-Feb-21 11:13 36.080455 -115.170836 125 2169ft 0kts
19-Feb-21 11:14 36.080455 -115.170836 125 2169ft 0kts
19-Feb-21 11:15 36.080455 -115.170836 125 2169ft 0kts
19-Feb-21 11:16 36.080455 -115.170836 125 2169ft 0kts
19-Feb-21 11:17 36.080455 -115.170836 125 2169ft 0kts
19-Feb-21 11:18 36.080455 -115.170836 125 2169ft 0kts
19-Feb-21 11:19 36.080455 -115.170836 125 2169ft 0kts
19-Feb-21 11:20 36.080455 -115.170836 125 2169ft 0kts
19-Feb-21 11:21 36.080455 -115.170836 125 2169ft 0kts
19-Feb-21 11:22 36.080455 -115.170836 125 2169ft 0kts
19-Feb-21 11:23 36.080455 -115.170836 125 2169ft 0kts
19-Feb-21 11:24 36.080455 -115.170836 125 2169ft 0kts
19-Feb-21 11:25 36.080455 -115.170836 125 2169ft 0kts
19-Feb-21 11:26 36.080455 -115.170836 125 2169ft 0kts
19-Feb-21 11:27 36.080455 -115.170836 125 2169ft 0kts
19-Feb-21 11:28 36.080455 -115.170836 125 2169ft 0kts
19-Feb-21 11:29 36.080455 -115.170836 125 2169ft 0kts
19-Feb-21 11:30 36.080455 -115.170836 125 2169ft 0kts
19-Feb-21 11:31 36.080455 -115.170836 125 2169ft 0kts
19-Feb-21 11:32 36.080455 -115.170836 125 2169ft 0kts
19-Feb-21 11:33 36.080455 -115.170836 125 2169ft 0kts
19-Feb-21 11:34 36.080455 -115.170836 125 2169ft 0kts
19-Feb-21 11:35 36.080455 -115.170836 125 2169ft 0kts
19-Feb-21 11:36 36.080455 -115.170836 125 2169ft 0kts
19-Feb-21 11:37 36.080455 -115.170836 125 2169ft 0kts
19-Feb-21 11:38 36.080455 -115.170836 125 2169ft 0kts
19-Feb-21 11:39 36.080455 -115.170836 125 2169ft 0kts
19-Feb-21 11:40 36.080455 -115.170836 125 2169ft 0kts
19-Feb-21 11:41 36.080455 -115.170836 125 2169ft 0kts
19-Feb-21 11:42 36.080455 -115.170836 125 2169ft 0kts
19-Feb-21 11:43 36.080455 -115.170836 125 2169ft 0kts
19-Feb-21 11:44 36.082339 -115.168812 25 2162ft 23kts
19-Feb-21 11:45 36.090317 -115.164201 25 2128ft 37kts
19-Feb-21 11:46 36.099762 -115.158019 71 2086ft 24kts
19-Feb-21 11:47 36.099853 -115.157558 87 2085ft 0kts
19-Feb-21 11:48 36.099853 -115.157558 87 2085ft 0kts
19-Feb-21 11:49 36.098738 -115.156938 207 2084ft 18kts
19-Feb-21 11:50 36.074136 -115.170651 201 2547ft 174kts
19-Feb-21 11:51 36.023016 -115.195455 201 4434ft 214kts
19-Feb-21 11:52 35.966919 -115.223401 187 6803ft 220kts
19-Feb-21 11:53 35.936616 -115.165924 103 8912ft 238kts
19-Feb-21 11:54 35.921205 -115.084698 102 11110ft 248kts
19-Feb-21 11:55 35.905480 -115.000218 101 13153ft 260kts
19-Feb-21 11:56 35.888968 -114.911638 100 14972ft 276kts
19-Feb-21 11:57 35.869840 -114.809630 101 15024ft 325kts
19-Feb-21 11:58 35.849530 -114.701868 101 16141ft 320kts
19-Feb-21 11:59 35.829342 -114.595239 100 17435ft 320kts
19-Feb-21 12:00 35.808989 -114.488289 100 18733ft 323kts
19-Feb-21 12:01 35.787999 -114.378593 101 19368ft 343kts
19-Feb-21 12:02 35.765390 -114.261116 101 19353ft 357kts
19-Feb-21 12:03 35.742297 -114.141774 101 19344ft 361kts
19-Feb-21 12:04 35.718824 -114.021145 101 19338ft 363kts
19-Feb-21 12:05 35.695410 -113.901506 101 19337ft 357kts
19-Feb-21 12:06 35.672131 -113.783203 101 19338ft 354kts
19-Feb-21 12:07 35.648904 -113.665820 101 19339ft 353kts
19-Feb-21 12:08 35.623689 -113.549620 120 19319ft 355kts
19-Feb-21 12:09 35.558165 -113.460120 134 19341ft 353kts
19-Feb-21 12:10 35.489798 -113.373734 134 19341ft 353kts
19-Feb-21 12:11 35.421160 -113.287247 135 19336ft 353kts
19-Feb-21 12:12 35.352754 -113.201278 135 19342ft 353kts
19-Feb-21 12:13 35.284359 -113.115544 135 19350ft 353kts
19-Feb-21 12:14 35.215758 -113.029772 135 19357ft 353kts
19-Feb-21 12:15 35.143979 -112.948288 140 19346ft 353kts
19-Feb-21 12:16 35.069978 -112.869338 140 19348ft 354kts
19-Feb-21 12:17 34.995912 -112.790522 140 19350ft 355kts
19-Feb-21 12:18 34.921588 -112.711630 140 19351ft 355kts
19-Feb-21 12:19 34.847052 -112.632711 140 19348ft 355kts
19-Feb-21 12:20 34.772603 -112.554078 140 19349ft 354kts
19-Feb-21 12:21 34.713344 -112.462781 93 19356ft 354kts
19-Feb-21 12:22 34.733091 -112.348304 70 19350ft 347kts
19-Feb-21 12:23 34.759021 -112.235234 70 19339ft 347kts
19-Feb-21 12:24 34.784851 -112.122175 70 19331ft 347kts
19-Feb-21 12:25 34.810597 -112.008963 70 19327ft 347kts
19-Feb-21 12:26 34.836189 -111.895890 70 19328ft 347kts
19-Feb-21 12:27 34.861770 -111.782331 70 19329ft 347kts
19-Feb-21 12:28 34.887147 -111.669140 70 19329ft 347kts
19-Feb-21 12:29 34.912502 -111.555510 70 19330ft 347kts
19-Feb-21 12:30 34.937780 -111.441681 70 19330ft 348kts
19-Feb-21 12:31 34.962879 -111.328113 70 19327ft 348kts
19-Feb-21 12:32 34.987911 -111.214279 70 19335ft 347kts
19-Feb-21 12:33 35.012749 -111.100768 70 19344ft 347kts
19-Feb-21 12:34 35.037548 -110.986871 69 19344ft 347kts
19-Feb-21 12:35 35.062286 -110.872716 69 19344ft 348kts
19-Feb-21 12:36 35.086905 -110.758590 69 19345ft 349kts
19-Feb-21 12:37 35.111506 -110.643944 69 19352ft 349kts
19-Feb-21 12:38 35.136041 -110.529026 69 19353ft 350kts
19-Feb-21 12:39 35.160654 -110.413931 69 19353ft 350kts
19-Feb-21 12:40 35.185241 -110.298204 69 19347ft 351kts
19-Feb-21 12:41 35.209456 -110.182997 70 19347ft 350kts
19-Feb-21 12:42 35.233553 -110.067696 70 19343ft 350kts
19-Feb-21 12:43 35.257628 -109.951902 70 19339ft 350kts
19-Feb-21 12:44 35.281554 -109.836229 70 19342ft 351kts
19-Feb-21 12:45 35.305393 -109.720373 70 19344ft 351kts
19-Feb-21 12:46 35.329084 -109.604635 70 19343ft 351kts
19-Feb-21 12:47 35.352648 -109.488906 70 19343ft 351kts
19-Feb-21 12:48 35.376094 -109.373143 70 19343ft 351kts
19-Feb-21 12:49 35.399476 -109.257088 70 19336ft 350kts
19-Feb-21 12:50 35.422720 -109.141085 70 19338ft 350kts
19-Feb-21 12:51 35.445844 -109.025073 70 19341ft 351kts
19-Feb-21 12:52 35.468872 -108.908936 70 19343ft 351kts
19-Feb-21 12:53 35.473871 -108.788066 87 19346ft 360kts
19-Feb-21 12:54 35.470633 -108.665087 87 19350ft 360kts
19-Feb-21 12:55 35.467256 -108.542080 87 19351ft 361kts
19-Feb-21 12:56 35.463728 -108.418752 87 18929ft 357kts
19-Feb-21 12:57 35.460262 -108.300890 87 18128ft 339kts
19-Feb-21 12:58 35.456792 -108.186680 87 17160ft 334kts
19-Feb-21 12:59 35.453242 -108.073548 88 16252ft 329kts
19-Feb-21 13:00 35.449666 -107.962741 88 15549ft 322kts
19-Feb-21 13:01 35.446040 -107.853652 88 15011ft 314kts
19-Feb-21 13:02 35.442495 -107.749483 87 15009ft 303kts
19-Feb-21 13:04 35.438913 -107.646853 87 15010ft 300kts
19-Feb-21 13:05 35.435266 -107.544922 87 15011ft 299kts
19-Feb-21 13:06 35.431541 -107.443195 87 15014ft 298kts
19-Feb-21 13:07 35.427736 -107.341615 88 15016ft 298kts
19-Feb-21 13:08 35.423836 -107.239860 88 15017ft 298kts
19-Feb-21 13:09 35.419877 -107.138850 88 15016ft 294kts
19-Feb-21 13:10 35.375864 -107.061785 149 15014ft 287kts
19-Feb-21 13:11 35.311179 -107.013189 151 15025ft 260kts
19-Feb-21 13:12 35.250624 -106.968461 152 15055ft 254kts
19-Feb-21 13:13 35.188269 -106.936932 188 14998ft 232kts
19-Feb-21 13:14 35.124419 -106.938637 188 13911ft 228kts
19-Feb-21 13:15 35.061028 -106.941197 188 12534ft 227kts
19-Feb-21 13:16 35.000660 -106.945622 188 10837ft 211kts
19-Feb-21 13:17 34.953874 -106.919655 120 9110ft 211kts
19-Feb-21 13:18 34.918450 -106.865552 128 8026ft 194kts
19-Feb-21 13:19 34.885960 -106.816009 105 8018ft 182kts
19-Feb-21 13:20 34.906596 -106.768707 37 7484ft 182kts
19-Feb-21 13:21 34.937425 -106.732798 40 7415ft 130kts
19-Feb-21 13:22 34.963206 -106.701835 41 6973ft 143kts
19-Feb-21 13:23 34.988196 -106.671696 42 6290ft 120kts
19-Feb-21 13:24 35.008322 -106.647436 43 5724ft 93kts
19-Feb-21 13:24 35.024036 -106.628604 42 5328ft 95kts
19-Feb-21 13:26 35.033976 -106.617996 312 5308ft 0kts
19-Feb-21 13:27 35.035999 -106.618960 46 5307ft 11kts

Navigation Log

Ident Type
Flight plan parsing failed, navigation log unavailable